Lesley Pg — MXUG5 — position and weather

sailwx.info

Track history (hours):
 
Tides and Currents Weather Stations Pressure Air Temp Water Temp Dewpoint Dewpoint Depression Visibility Wind Speed Wind Dir Waves Ship Positions

Lesley Pg

Last reported at 2016-Aug-26 22:33 UTC. Time now 2016-Aug-26 23:30 UTC.
Position N 18°01' W 063°05'.

Length 102 m; draft 5.8 m.

Type: Tanker. MMSI: 234910000.

Date/timePositionNaut miles runAvg speedWind from/ knotsBaromVisibWave heightAir tempDewpointWater temp
2016-Aug-26 22:33N 18°01' W 063°05'0 0.0
2016-Aug-26 21:24N 18°01' W 063°05'0 0.0
2016-Aug-26 20:27N 18°01' W 063°05'0 0.0
2016-Aug-26 19:27N 18°01' W 063°05'0 0.0
2016-Aug-26 18:27N 18°01' W 063°05'0 0.0
2016-Aug-26 17:30N 18°01' W 063°05'0 0.0
2016-Aug-26 16:30N 18°01' W 063°05'0 0.0
2016-Aug-26 15:30N 18°01' W 063°05'0 0.0
2016-Aug-26 14:33N 18°01' W 063°05'0 0.0
2016-Aug-26 13:33N 18°01' W 063°05'0 0.0
2016-Aug-26 12:33N 18°01' W 063°05'0 0.0
2016-Aug-26 11:25N 18°01' W 063°05'1 1.4
2016-Aug-26 10:30N 17°60' W 063°05'1211.5
2016-Aug-26 09:30N 17°48' W 063°05'7210.4
2016-Aug-26 02:33N 16°45' W 062°28'1010.5
2016-Aug-26 01:33N 16°37' W 062°21'10 9.9
2016-Aug-26 00:33N 16°30' W 062°15'9 8.6
2016-Aug-25 23:32N 16°21' W 062°11'3711.0
2016-Aug-25 20:12N 15°52' W 061°49'911.4
2016-Aug-25 19:25N 15°44' W 061°43'1011.5
2016-Aug-25 18:31N 15°36' W 061°37'4 0.2
2016-Aug-24 13:28N 15°38' W 061°41'59 8.3
2016-Aug-24 06:24N 16°25' W 062°18'2011.0
2016-Aug-24 04:33N 16°41' W 062°31'37 3.3
2016-Aug-23 17:10N 17°16' W 062°43'26 8.5
2016-Aug-23 14:09N 17°06' W 062°19'711.6
2016-Aug-23 13:33N 17°07' W 062°12'1111.4
2016-Aug-23 12:33N 17°09' W 061°60'7 7.2
2016-Aug-23 11:32N 17°09' W 061°52'0 0.0
2016-Aug-23 10:32N 17°09' W 061°52'0 0.0
2016-Aug-23 09:32N 17°09' W 061°52'0 0.0
2016-Aug-23 08:32N 17°09' W 061°52'0 0.0
2016-Aug-23 07:32N 17°09' W 061°52'0 0.0
2016-Aug-23 06:32N 17°09' W 061°52'0 0.0
2016-Aug-23 05:32N 17°09' W 061°52'0 0.0
2016-Aug-23 04:32N 17°09' W 061°52'0 0.0
2016-Aug-23 03:32N 17°09' W 061°52'0 0.0
2016-Aug-23 02:32N 17°09' W 061°52'0 0.0
2016-Aug-23 01:32N 17°09' W 061°52'0 0.0
2016-Aug-23 00:32N 17°09' W 061°52'0 0.0
2016-Aug-22 23:32N 17°09' W 061°52'0 0.0
2016-Aug-22 22:32N 17°09' W 061°52'0 0.0
2016-Aug-22 21:32N 17°09' W 061°52'0 0.0
2016-Aug-22 20:32N 17°09' W 061°52'0 0.0
2016-Aug-22 19:32N 17°09' W 061°52'0 0.0
2016-Aug-22 18:32N 17°09' W 061°52'0 0.0
2016-Aug-22 17:32N 17°09' W 061°52'0 0.0
2016-Aug-22 16:32N 17°09' W 061°52'0 0.0
2016-Aug-22 15:32N 17°09' W 061°52'0 0.0
2016-Aug-22 14:32N 17°09' W 061°52'0 0.0
2016-Aug-22 13:32N 17°09' W 061°52'0 0.0
2016-Aug-22 12:32N 17°09' W 061°52'0 0.2
2016-Aug-22 11:33N 17°09' W 061°52'2 2.1
2016-Aug-22 10:33N 17°09' W 061°55'3 3.4
2016-Aug-22 09:33N 17°08' W 061°58'7 6.7
2016-Aug-22 08:33N 17°01' W 061°58'6 6.5
2016-Aug-22 07:33N 16°55' W 061°58'6 6.5
2016-Aug-22 06:33N 16°48' W 061°58'7 6.7
2016-Aug-22 05:33N 16°42' W 061°58'7 6.8
2016-Aug-22 04:33N 16°35' W 061°58'7 6.7
2016-Aug-22 03:33N 16°28' W 061°59'6 5.7
2016-Aug-22 02:33N 16°22' W 061°59'6 5.6
2016-Aug-22 01:33N 16°17' W 061°59'6 5.8
2016-Aug-22 00:32N 16°11' W 061°58'17 5.1
2016-Aug-21 21:15N 15°57' W 061°49'5 5.6
2016-Aug-21 20:22N 15°55' W 061°44'8 6.6
2016-Aug-21 19:11N 15°56' W 061°36'7 0.6
2016-Aug-21 08:13N 15°55' W 061°43'2910.2
2016-Aug-21 05:22N 16°16' W 062°03'910.5
2016-Aug-21 04:33N 16°23' W 062°09'10 9.9
2016-Aug-21 03:34N 16°30' W 062°15'10 9.7
2016-Aug-21 02:34N 16°38' W 062°22'9 9.1
2016-Aug-21 01:34N 16°45' W 062°28'2 0.1
2016-Aug-20 04:16N 16°47' W 062°28'912.6
2016-Aug-20 03:33N 16°39' W 062°22'1312.6
2016-Aug-20 02:33N 16°29' W 062°14'1212.1
2016-Aug-20 01:33N 16°20' W 062°06'38 9.2
2016-Aug-19 21:24N 16°03' W 061°31'1011.3
2016-Aug-19 20:33N 16°12' W 061°32'2 0.2
2016-Aug-19 11:13N 16°14' W 061°33'3 5.1
2016-Aug-19 10:33N 16°11' W 061°31'  
Track history (hours):
 
Tides and Currents Weather Stations Pressure Air Temp Water Temp Dewpoint Dewpoint Depression Visibility Wind Speed Wind Dir Waves Ship Positions

Lesley Pg

Last reported at 2016-Aug-26 22:33 UTC. Time now 2016-Aug-26 23:30 UTC.
Position N 18°01' W 063°05'.

Length 102 m; draft 5.8 m.

Type: Tanker. MMSI: 234910000.

Date/timePositionNaut miles runAvg speedWind from/ knotsBaromVisibWave heightAir tempDewpointWater temp
2016-Aug-26 22:33N 18°01' W 063°05'0 0.0
2016-Aug-26 21:24N 18°01' W 063°05'0 0.0
2016-Aug-26 20:27N 18°01' W 063°05'0 0.0
2016-Aug-26 19:27N 18°01' W 063°05'0 0.0
2016-Aug-26 18:27N 18°01' W 063°05'0 0.0
2016-Aug-26 17:30N 18°01' W 063°05'0 0.0
2016-Aug-26 16:30N 18°01' W 063°05'0 0.0
2016-Aug-26 15:30N 18°01' W 063°05'0 0.0
2016-Aug-26 14:33N 18°01' W 063°05'0 0.0
2016-Aug-26 13:33N 18°01' W 063°05'0 0.0
2016-Aug-26 12:33N 18°01' W 063°05'0 0.0
2016-Aug-26 11:25N 18°01' W 063°05'1 1.4
2016-Aug-26 10:30N 17°60' W 063°05'1211.5
2016-Aug-26 09:30N 17°48' W 063°05'7210.4
2016-Aug-26 02:33N 16°45' W 062°28'1010.5
2016-Aug-26 01:33N 16°37' W 062°21'10 9.9
2016-Aug-26 00:33N 16°30' W 062°15'9 8.6
2016-Aug-25 23:32N 16°21' W 062°11'3711.0
2016-Aug-25 20:12N 15°52' W 061°49'911.4
2016-Aug-25 19:25N 15°44' W 061°43'1011.5
2016-Aug-25 18:31N 15°36' W 061°37'4 0.2
2016-Aug-24 13:28N 15°38' W 061°41'59 8.3
2016-Aug-24 06:24N 16°25' W 062°18'2011.0
2016-Aug-24 04:33N 16°41' W 062°31'37 3.3
2016-Aug-23 17:10N 17°16' W 062°43'26 8.5
2016-Aug-23 14:09N 17°06' W 062°19'711.6
2016-Aug-23 13:33N 17°07' W 062°12'1111.4
2016-Aug-23 12:33N 17°09' W 061°60'7 7.2
2016-Aug-23 11:32N 17°09' W 061°52'0 0.0
2016-Aug-23 10:32N 17°09' W 061°52'0 0.0
2016-Aug-23 09:32N 17°09' W 061°52'0 0.0
2016-Aug-23 08:32N 17°09' W 061°52'0 0.0
2016-Aug-23 07:32N 17°09' W 061°52'0 0.0
2016-Aug-23 06:32N 17°09' W 061°52'0 0.0
2016-Aug-23 05:32N 17°09' W 061°52'0 0.0
2016-Aug-23 04:32N 17°09' W 061°52'0 0.0
2016-Aug-23 03:32N 17°09' W 061°52'0 0.0
2016-Aug-23 02:32N 17°09' W 061°52'0 0.0
2016-Aug-23 01:32N 17°09' W 061°52'0 0.0
2016-Aug-23 00:32N 17°09' W 061°52'0 0.0
2016-Aug-22 23:32N 17°09' W 061°52'0 0.0
2016-Aug-22 22:32N 17°09' W 061°52'0 0.0
2016-Aug-22 21:32N 17°09' W 061°52'0 0.0
2016-Aug-22 20:32N 17°09' W 061°52'0 0.0
2016-Aug-22 19:32N 17°09' W 061°52'0 0.0
2016-Aug-22 18:32N 17°09' W 061°52'0 0.0
2016-Aug-22 17:32N 17°09' W 061°52'0 0.0
2016-Aug-22 16:32N 17°09' W 061°52'0 0.0
2016-Aug-22 15:32N 17°09' W 061°52'0 0.0
2016-Aug-22 14:32N 17°09' W 061°52'0 0.0
2016-Aug-22 13:32N 17°09' W 061°52'0 0.0
2016-Aug-22 12:32N 17°09' W 061°52'0 0.2
2016-Aug-22 11:33N 17°09' W 061°52'2 2.1
2016-Aug-22 10:33N 17°09' W 061°55'3 3.4
2016-Aug-22 09:33N 17°08' W 061°58'7 6.7
2016-Aug-22 08:33N 17°01' W 061°58'6 6.5
2016-Aug-22 07:33N 16°55' W 061°58'6 6.5
2016-Aug-22 06:33N 16°48' W 061°58'7 6.7
2016-Aug-22 05:33N 16°42' W 061°58'7 6.8
2016-Aug-22 04:33N 16°35' W 061°58'7 6.7
2016-Aug-22 03:33N 16°28' W 061°59'6 5.7
2016-Aug-22 02:33N 16°22' W 061°59'6 5.6
2016-Aug-22 01:33N 16°17' W 061°59'6 5.8
2016-Aug-22 00:32N 16°11' W 061°58'17 5.1
2016-Aug-21 21:15N 15°57' W 061°49'5 5.6
2016-Aug-21 20:22N 15°55' W 061°44'8 6.6
2016-Aug-21 19:11N 15°56' W 061°36'7 0.6
2016-Aug-21 08:13N 15°55' W 061°43'2910.2
2016-Aug-21 05:22N 16°16' W 062°03'910.5
2016-Aug-21 04:33N 16°23' W 062°09'10 9.9
2016-Aug-21 03:34N 16°30' W 062°15'10 9.7
2016-Aug-21 02:34N 16°38' W 062°22'9 9.1
2016-Aug-21 01:34N 16°45' W 062°28'2 0.1
2016-Aug-20 04:16N 16°47' W 062°28'912.6
2016-Aug-20 03:33N 16°39' W 062°22'1312.6
2016-Aug-20 02:33N 16°29' W 062°14'1212.1
2016-Aug-20 01:33N 16°20' W 062°06'38 9.2
2016-Aug-19 21:24N 16°03' W 061°31'1011.3
2016-Aug-19 20:33N 16°12' W 061°32'2 0.2
2016-Aug-19 11:13N 16°14' W 061°33'3 5.1
2016-Aug-19 10:33N 16°11' W 061°31'  

Dump ship's entire track history